createdAt,value
2024-05-09T00:00:29.715Z,93423.00
2024-05-09T00:01:21.327Z,93421.00
2024-05-09T00:02:20.377Z,93419.00
2024-05-09T00:03:20.375Z,93418.00
2024-05-09T00:04:20.321Z,93417.00
2024-05-09T00:05:20.492Z,93416.00
2024-05-09T00:06:20.330Z,93417.00
2024-05-09T00:07:20.353Z,93416.00
2024-05-09T00:08:20.430Z,93417.00
2024-05-09T00:09:20.394Z,93418.00
2024-05-09T00:10:25.590Z,93419.00
2024-05-09T00:11:21.548Z,93421.00
2024-05-09T00:12:20.554Z,93419.00
2024-05-09T00:13:20.467Z,93421.00
2024-05-09T00:14:20.524Z,93420.00
2024-05-09T00:15:20.519Z,93423.00
2024-05-09T00:16:20.538Z,93422.00
2024-05-09T00:17:20.583Z,93424.00
2024-05-09T00:18:20.701Z,93424.00
2024-05-09T00:19:20.774Z,93424.00
2024-05-09T00:20:28.033Z,93422.00
2024-05-09T00:21:21.633Z,93422.00
2024-05-09T00:22:20.671Z,93422.00
2024-05-09T00:23:20.685Z,93421.00
2024-05-09T00:24:20.675Z,93419.00
2024-05-09T00:25:20.797Z,93418.00
2024-05-09T00:26:20.783Z,93419.00
2024-05-09T00:27:20.930Z,93418.00
2024-05-09T00:28:20.751Z,93417.00
2024-05-09T00:29:20.910Z,93415.00
2024-05-09T00:30:27.820Z,93416.00
2024-05-09T00:31:21.838Z,93413.00
2024-05-09T00:32:21.185Z,93413.00
2024-05-09T00:33:21.309Z,93414.00
2024-05-09T00:34:21.001Z,93407.00
2024-05-09T00:35:20.938Z,93411.00
2024-05-09T00:36:20.962Z,93409.00
2024-05-09T00:37:20.928Z,93408.00
2024-05-09T00:38:21.154Z,93406.00
2024-05-09T00:39:20.971Z,93405.00
2024-05-09T00:40:30.801Z,93406.00
2024-05-09T00:41:22.029Z,93404.00
2024-05-09T00:42:21.042Z,93406.00
2024-05-09T00:43:21.057Z,93407.00
2024-05-09T00:44:21.126Z,93406.00
2024-05-09T00:45:21.102Z,93409.00
2024-05-09T00:46:21.133Z,93407.00
2024-05-09T00:47:21.400Z,93409.00
2024-05-09T00:48:21.748Z,93410.00
2024-05-09T00:49:21.470Z,93407.00
2024-05-09T00:50:29.440Z,93408.00
2024-05-09T00:51:22.280Z,93408.00
2024-05-09T00:52:21.287Z,93403.00
2024-05-09T00:53:21.418Z,93405.00
2024-05-09T00:54:21.267Z,93406.00
2024-05-09T00:55:21.285Z,93404.00
2024-05-09T00:56:21.337Z,93406.00
2024-05-09T00:57:21.322Z,93408.00
2024-05-09T00:58:21.338Z,93405.00
2024-05-09T00:59:21.622Z,93405.00
2024-05-09T01:00:27.356Z,93407.00
2024-05-09T01:01:22.406Z,93406.00
2024-05-09T01:02:21.555Z,93406.00
2024-05-09T01:03:21.852Z,93406.00
2024-05-09T01:04:21.491Z,93406.00
2024-05-09T01:05:21.463Z,93403.00
2024-05-09T01:06:21.484Z,93403.00
2024-05-09T01:07:21.507Z,93400.00
2024-05-09T01:08:21.714Z,93403.00
2024-05-09T01:09:21.567Z,93400.00
2024-05-09T01:10:27.952Z,93398.00
2024-05-09T01:11:22.745Z,93398.00
2024-05-09T01:12:21.690Z,93397.00
2024-05-09T01:13:21.613Z,93396.00
2024-05-09T01:14:21.652Z,93397.00
2024-05-09T01:15:21.649Z,93395.00
2024-05-09T01:16:21.672Z,93398.00
2024-05-09T01:17:21.758Z,93395.00
2024-05-09T01:18:21.899Z,93396.00
2024-05-09T01:19:21.968Z,93396.00
2024-05-09T01:21:21.847Z,93393.00
2024-05-09T01:22:21.795Z,93394.00
2024-05-09T01:23:21.827Z,93394.00
2024-05-09T01:24:21.846Z,93393.00
2024-05-09T01:25:21.871Z,93393.00
2024-05-09T01:26:21.942Z,93392.00
2024-05-09T01:27:21.998Z,93391.00
2024-05-09T01:28:22.060Z,93392.00
2024-05-09T01:29:22.175Z,93392.00
2024-05-09T01:30:31.214Z,93392.00
2024-05-09T01:31:23.228Z,93391.00
2024-05-09T01:32:22.546Z,93392.00
2024-05-09T01:33:22.375Z,93391.00
2024-05-09T01:34:22.356Z,93391.00
2024-05-09T01:35:22.369Z,93390.00
2024-05-09T01:36:22.352Z,93392.00
2024-05-09T01:37:22.380Z,93390.00
2024-05-09T01:38:22.460Z,93392.00
2024-05-09T01:39:22.414Z,93391.00
2024-05-09T01:40:29.132Z,93393.00
2024-05-09T01:41:23.506Z,93391.00
2024-05-09T01:42:22.506Z,93389.00
2024-05-09T01:43:22.551Z,93390.00
2024-05-09T01:44:22.730Z,93389.00
2024-05-09T01:45:22.563Z,93390.00
2024-05-09T01:46:22.596Z,93389.00
2024-05-09T01:47:22.798Z,93389.00
2024-05-09T01:48:22.797Z,93388.00
2024-05-09T01:49:22.833Z,93388.00
2024-05-09T01:50:34.130Z,93388.00
2024-05-09T01:51:23.804Z,93388.00
2024-05-09T01:52:22.769Z,93390.00
2024-05-09T01:53:22.868Z,93390.00
2024-05-09T01:54:22.832Z,93390.00
2024-05-09T01:55:22.862Z,93391.00
2024-05-09T01:56:22.976Z,93390.00
2024-05-09T01:57:22.922Z,93392.00
2024-05-09T01:58:22.965Z,93395.00
2024-05-09T01:59:23.065Z,93394.00
2024-05-09T02:00:33.262Z,93394.00
2024-05-09T02:01:24.135Z,93396.00
2024-05-09T02:02:23.217Z,93394.00
2024-05-09T02:03:23.409Z,93395.00
2024-05-09T02:04:23.389Z,93396.00
2024-05-09T02:05:23.407Z,93396.00
2024-05-09T02:06:23.278Z,93396.00
2024-05-09T02:07:23.288Z,93395.00
2024-05-09T02:08:23.363Z,93396.00
2024-05-09T02:09:23.438Z,93396.00
2024-05-09T02:10:30.262Z,93395.00
2024-05-09T02:11:24.501Z,93396.00
2024-05-09T02:12:23.534Z,93395.00
2024-05-09T02:13:23.514Z,93395.00
2024-05-09T02:14:23.635Z,93396.00
2024-05-09T02:15:23.586Z,93395.00
2024-05-09T02:16:23.623Z,93398.00
2024-05-09T02:17:23.804Z,93399.00
2024-05-09T02:18:23.902Z,93398.00
2024-05-09T02:19:23.856Z,93397.00
2024-05-09T02:20:33.052Z,93397.00
2024-05-09T02:21:24.828Z,93398.00
2024-05-09T02:22:23.872Z,93397.00
2024-05-09T02:23:23.903Z,93399.00
2024-05-09T02:24:23.922Z,93402.00
2024-05-09T02:25:23.940Z,93401.00
2024-05-09T02:26:24.018Z,93399.00
2024-05-09T02:27:24.028Z,93402.00
2024-05-09T02:28:24.089Z,93401.00
2024-05-09T02:29:24.182Z,93401.00
2024-05-09T02:30:30.914Z,93399.00
2024-05-09T02:31:25.174Z,93397.00
2024-05-09T02:32:24.395Z,93399.00
2024-05-09T02:33:24.395Z,93398.00
2024-05-09T02:34:24.346Z,93397.00
2024-05-09T02:35:24.373Z,93393.00
2024-05-09T02:36:24.368Z,93392.00
2024-05-09T02:37:24.415Z,93396.00
2024-05-09T02:38:24.521Z,93395.00
2024-05-09T02:39:24.502Z,93394.00
2024-05-09T02:41:24.646Z,93393.00
2024-05-09T02:42:24.616Z,93393.00
2024-05-09T02:43:25.324Z,93393.00
2024-05-09T02:44:24.862Z,93393.00
2024-05-09T02:45:24.821Z,93392.00
2024-05-09T02:46:24.907Z,93392.00
2024-05-09T02:47:25.096Z,93392.00
2024-05-09T02:48:25.113Z,93391.00
2024-05-09T02:49:25.244Z,93391.00
2024-05-09T02:50:33.644Z,93390.00
2024-05-09T02:51:26.265Z,93389.00
2024-05-09T02:52:25.318Z,93389.00
2024-05-09T02:53:25.413Z,93388.00
2024-05-09T02:54:25.405Z,93386.00
2024-05-09T02:55:25.454Z,93388.00
2024-05-09T02:56:25.586Z,93388.00
2024-05-09T02:57:25.568Z,93386.00
2024-05-09T02:58:25.598Z,93386.00
2024-05-09T02:59:25.774Z,93386.00
2024-05-09T03:01:25.881Z,93386.00
2024-05-09T03:02:25.898Z,93386.00
2024-05-09T03:03:26.287Z,93387.00
2024-05-09T03:04:25.884Z,93389.00
2024-05-09T03:05:26.064Z,93388.00
2024-05-09T03:06:26.002Z,93389.00
2024-05-09T03:07:26.099Z,93385.00
2024-05-09T03:08:26.219Z,93387.00
2024-05-09T03:09:26.254Z,93387.00
2024-05-09T03:10:29.005Z,93387.00
2024-05-09T03:11:27.502Z,93387.00
2024-05-09T03:12:26.486Z,93387.00
2024-05-09T03:13:26.480Z,93385.00
2024-05-09T03:14:26.645Z,93384.00
2024-05-09T03:15:26.645Z,93387.00
2024-05-09T03:16:26.623Z,93386.00
2024-05-09T03:17:26.766Z,93385.00
2024-05-09T03:18:26.757Z,93386.00
2024-05-09T03:19:26.836Z,93388.00
2024-05-09T03:20:32.618Z,93388.00
2024-05-09T03:21:27.874Z,93389.00
2024-05-09T03:22:26.903Z,93388.00
2024-05-09T03:23:26.990Z,93390.00
2024-05-09T03:24:26.994Z,93391.00
2024-05-09T03:25:27.042Z,93392.00
2024-05-09T03:26:27.194Z,93392.00
2024-05-09T03:27:27.130Z,93393.00
2024-05-09T03:28:27.184Z,93393.00
2024-05-09T03:29:27.341Z,93393.00
2024-05-09T03:30:35.950Z,93393.00
2024-05-09T03:31:28.341Z,93392.00
2024-05-09T03:32:27.468Z,93397.00
2024-05-09T03:33:27.575Z,93396.00
2024-05-09T03:34:27.558Z,93395.00
2024-05-09T03:35:27.586Z,93395.00
2024-05-09T03:36:27.579Z,93396.00
2024-05-09T03:37:27.632Z,93398.00
2024-05-09T03:38:27.697Z,93396.00
2024-05-09T03:39:27.719Z,93401.00
2024-05-09T03:40:30.996Z,93403.00
2024-05-09T03:41:27.853Z,93402.00
2024-05-09T03:42:27.865Z,93405.00
2024-05-09T03:43:27.905Z,93404.00
2024-05-09T03:44:28.113Z,93402.00
2024-05-09T03:45:28.007Z,93403.00
2024-05-09T03:46:28.045Z,93404.00
2024-05-09T03:47:28.263Z,93404.00
2024-05-09T03:48:28.212Z,93400.00
2024-05-09T03:49:28.218Z,93402.00
2024-05-09T03:50:33.725Z,93401.00
2024-05-09T03:51:29.290Z,93398.00
2024-05-09T03:52:28.328Z,93398.00
2024-05-09T03:53:28.395Z,93400.00
2024-05-09T03:54:28.408Z,93399.00
2024-05-09T03:55:28.467Z,93397.00
2024-05-09T03:56:28.560Z,93399.00
2024-05-09T03:57:28.534Z,93399.00
2024-05-09T03:58:28.592Z,93398.00
2024-05-09T03:59:28.821Z,93401.00
2024-05-09T04:01:28.774Z,93399.00
2024-05-09T04:02:28.880Z,93398.00
2024-05-09T04:03:29.043Z,93401.00
2024-05-09T04:04:28.897Z,93402.00
2024-05-09T04:05:28.985Z,93400.00
2024-05-09T04:06:29.046Z,93403.00
2024-05-09T04:07:29.127Z,93402.00
2024-05-09T04:08:29.241Z,93404.00
2024-05-09T04:09:29.509Z,93402.00
2024-05-09T04:10:33.349Z,93403.00
2024-05-09T04:11:30.548Z,93405.00
2024-05-09T04:12:29.509Z,93401.00
2024-05-09T04:13:29.500Z,93402.00
2024-05-09T04:14:29.637Z,93407.00
2024-05-09T04:15:29.663Z,93404.00
2024-05-09T04:16:29.611Z,93404.00
2024-05-09T04:17:29.824Z,93403.00
2024-05-09T04:18:29.800Z,93405.00
2024-05-09T04:19:29.929Z,93404.00
2024-05-09T04:20:37.507Z,93407.00
2024-05-09T04:21:30.833Z,93408.00
2024-05-09T04:22:29.880Z,93410.00
2024-05-09T04:23:29.939Z,93411.00
2024-05-09T04:24:29.961Z,93414.00
2024-05-09T04:25:30.047Z,93416.00
2024-05-09T04:26:30.129Z,93415.00
2024-05-09T04:27:37.346Z,93416.00
2024-05-09T04:28:37.338Z,93416.00
2024-05-09T04:29:37.510Z,93419.00
2024-05-09T04:30:40.105Z,93418.00
2024-05-09T04:31:48.749Z,93419.00
2024-05-09T04:32:48.825Z,93421.00
2024-05-09T04:33:48.910Z,93420.00
2024-05-09T04:34:48.782Z,93421.00
2024-05-09T04:35:48.758Z,93418.00
2024-05-09T04:36:48.777Z,93418.00
2024-05-09T04:37:48.903Z,93419.00
2024-05-09T04:38:48.790Z,93419.00
2024-05-09T04:39:48.825Z,93419.00
2024-05-09T04:40:48.869Z,93422.00
2024-05-09T04:41:48.846Z,93421.00
2024-05-09T04:42:48.880Z,93423.00
2024-05-09T04:43:48.963Z,93424.00
2024-05-09T04:44:48.911Z,93426.00
2024-05-09T04:45:48.942Z,93428.00
2024-05-09T04:46:48.976Z,93426.00
2024-05-09T04:47:49.057Z,93427.00
2024-05-09T04:48:49.107Z,93428.00
2024-05-09T04:49:48.992Z,93428.00
2024-05-09T04:50:49.091Z,93427.00
2024-05-09T04:51:49.011Z,93424.00
2024-05-09T04:52:49.054Z,93422.00
2024-05-09T04:53:49.115Z,93421.00
2024-05-09T04:54:49.059Z,93418.00
2024-05-09T04:55:49.223Z,93420.00
2024-05-09T04:56:49.216Z,93417.00
2024-05-09T04:57:49.281Z,93418.00
2024-05-09T04:58:49.403Z,93416.00
2024-05-09T04:59:49.426Z,93416.00
2024-05-09T05:00:49.560Z,93416.00
2024-05-09T05:01:49.639Z,93418.00
2024-05-09T05:02:49.772Z,93418.00
2024-05-09T05:03:49.894Z,93420.00
2024-05-09T05:04:50.098Z,93422.00
2024-05-09T05:05:49.932Z,93424.00
2024-05-09T05:06:49.974Z,93423.00
2024-05-09T05:07:50.079Z,93425.00
2024-05-09T05:08:50.103Z,93426.00
2024-05-09T05:09:50.180Z,93426.00
2024-05-09T05:10:50.450Z,93425.00
2024-05-09T05:11:50.421Z,93423.00
2024-05-09T05:12:50.412Z,93426.00
2024-05-09T05:13:50.552Z,93427.00
2024-05-09T05:14:50.568Z,93428.00
2024-05-09T05:15:50.647Z,93427.00
2024-05-09T05:16:50.730Z,93429.00
2024-05-09T05:17:50.969Z,93427.00
2024-05-09T05:18:50.968Z,93427.00
2024-05-09T05:19:51.080Z,93426.00
2024-05-09T05:20:51.337Z,93425.00
2024-05-09T05:21:51.076Z,93426.00
2024-05-09T05:22:51.202Z,93424.00
2024-05-09T05:23:51.242Z,93427.00
2024-05-09T05:24:51.311Z,93427.00
2024-05-09T05:25:51.466Z,93426.00
2024-05-09T05:26:51.469Z,93426.00
2024-05-09T05:27:51.541Z,93429.00
2024-05-09T05:28:51.623Z,93427.00
2024-05-09T05:29:51.679Z,93428.00
2024-05-09T05:30:51.775Z,93429.00
2024-05-09T05:31:51.946Z,93429.00
2024-05-09T05:32:52.077Z,93431.00
2024-05-09T05:33:52.097Z,93429.00
2024-05-09T05:34:52.085Z,93433.00
2024-05-09T05:35:52.105Z,93433.00
2024-05-09T05:36:52.187Z,93432.00
2024-05-09T05:37:52.313Z,93433.00
2024-05-09T05:38:52.376Z,93436.00
2024-05-09T05:39:52.416Z,93435.00
2024-05-09T05:40:52.496Z,93437.00
2024-05-09T05:41:52.603Z,93436.00
2024-05-09T05:42:52.635Z,93436.00
2024-05-09T05:43:52.782Z,93435.00
2024-05-09T05:44:52.785Z,93432.00
2024-05-09T05:45:52.865Z,93434.00
2024-05-09T05:46:53.016Z,93433.00
2024-05-09T05:47:53.258Z,93431.00
2024-05-09T05:48:53.275Z,93431.00
2024-05-09T05:49:53.163Z,93429.00
2024-05-09T05:50:53.314Z,93430.00
2024-05-09T05:51:53.311Z,93432.00
2024-05-09T05:52:53.388Z,93433.00
2024-05-09T05:53:53.444Z,93433.00
2024-05-09T05:54:53.518Z,93432.00
2024-05-09T05:55:53.723Z,93431.00
2024-05-09T05:56:53.675Z,93433.00
2024-05-09T05:57:53.759Z,93434.00
2024-05-09T05:58:53.860Z,93434.00
2024-05-09T05:59:53.897Z,93434.00
2024-05-09T06:00:54.095Z,93434.00
2024-05-09T06:01:54.058Z,93436.00
2024-05-09T06:02:54.167Z,93437.00
2024-05-09T06:03:54.295Z,93437.00
2024-05-09T06:04:54.312Z,93438.00
2024-05-09T06:05:54.358Z,93442.00
2024-05-09T06:06:54.381Z,93439.00
2024-05-09T06:07:54.494Z,93442.00
2024-05-09T06:08:54.620Z,93440.00
2024-05-09T06:09:54.588Z,93441.00
2024-05-09T06:10:54.719Z,93441.00
2024-05-09T06:11:54.860Z,93444.00
2024-05-09T06:12:54.841Z,93442.00
2024-05-09T06:13:54.917Z,93442.00
2024-05-09T06:14:54.961Z,93442.00
2024-05-09T06:15:55.038Z,93441.00
2024-05-09T06:16:58.120Z,93443.00
2024-05-09T06:17:55.299Z,93441.00
2024-05-09T06:18:55.344Z,93442.00
2024-05-09T06:19:55.247Z,93441.00
2024-05-09T06:20:55.192Z,93438.00
2024-05-09T06:21:55.187Z,93439.00
2024-05-09T06:22:55.270Z,93439.00
2024-05-09T06:23:55.211Z,93438.00
2024-05-09T06:24:55.241Z,93438.00
2024-05-09T06:25:55.323Z,93437.00
2024-05-09T06:26:55.274Z,93437.00
2024-05-09T06:27:55.337Z,93435.00
2024-05-09T06:28:55.354Z,93432.00
2024-05-09T06:29:55.330Z,93430.00
2024-05-09T06:30:55.368Z,93429.00
2024-05-09T06:31:57.097Z,93430.00
2024-05-09T06:32:55.499Z,93428.00
2024-05-09T06:33:55.591Z,93427.00
2024-05-09T06:34:55.520Z,93427.00
2024-05-09T06:35:55.474Z,93429.00
2024-05-09T06:36:55.499Z,93428.00
2024-05-09T06:37:55.586Z,93432.00
2024-05-09T06:38:55.528Z,93431.00
2024-05-09T06:39:55.565Z,93429.00
2024-05-09T06:40:55.598Z,93430.00
2024-05-09T06:41:55.599Z,93432.00
2024-05-09T06:42:55.609Z,93432.00
2024-05-09T06:43:55.655Z,93432.00
2024-05-09T06:44:55.650Z,93432.00
2024-05-09T06:45:55.672Z,93431.00
2024-05-09T06:46:58.086Z,93430.00
2024-05-09T06:47:55.929Z,93431.00
2024-05-09T06:48:55.965Z,93431.00
2024-05-09T06:49:55.772Z,93431.00
2024-05-09T06:50:55.802Z,93431.00
2024-05-09T06:51:55.798Z,93432.00
2024-05-09T06:52:55.814Z,93434.00
2024-05-09T06:53:55.804Z,93435.00
2024-05-09T06:54:55.820Z,93436.00
2024-05-09T06:55:55.858Z,93435.00
2024-05-09T06:56:55.844Z,93433.00
2024-05-09T06:57:55.884Z,93431.00
2024-05-09T06:58:55.947Z,93432.00
2024-05-09T06:59:55.886Z,93435.00
2024-05-09T07:00:55.940Z,93433.00
2024-05-09T07:01:55.952Z,93430.00
2024-05-09T07:02:56.165Z,93430.00
2024-05-09T07:03:56.096Z,93431.00
2024-05-09T07:04:56.105Z,93429.00
2024-05-09T07:05:56.016Z,93428.00
2024-05-09T07:06:56.005Z,93428.00
2024-05-09T07:07:56.081Z,93427.00
2024-05-09T07:08:56.055Z,93427.00
2024-05-09T07:09:56.078Z,93427.00
2024-05-09T07:10:56.166Z,93425.00
2024-05-09T07:11:56.152Z,93426.00
2024-05-09T07:12:56.131Z,93428.00
2024-05-09T07:13:56.179Z,93427.00
2024-05-09T07:14:56.158Z,93429.00
2024-05-09T07:15:56.182Z,93428.00
2024-05-09T07:16:56.240Z,93428.00
2024-05-09T07:17:56.605Z,93428.00
2024-05-09T07:18:56.521Z,93428.00
2024-05-09T07:19:56.364Z,93428.00
2024-05-09T07:20:56.592Z,93427.00
2024-05-09T07:21:56.458Z,93429.00
2024-05-09T07:22:56.544Z,93426.00
2024-05-09T07:23:56.624Z,93426.00
2024-05-09T07:24:56.654Z,93426.00
2024-05-09T07:25:56.800Z,93423.00
2024-05-09T07:26:56.790Z,93425.00
2024-05-09T07:27:56.868Z,93426.00
2024-05-09T07:28:56.956Z,93423.00
2024-05-09T07:29:57.003Z,93420.00
2024-05-09T07:30:57.065Z,93421.00
2024-05-09T07:31:57.155Z,93421.00
2024-05-09T07:32:57.524Z,93420.00
2024-05-09T07:33:57.332Z,93422.00
2024-05-09T07:34:57.360Z,93421.00
2024-05-09T07:35:57.399Z,93421.00
2024-05-09T07:36:57.460Z,93423.00
2024-05-09T07:37:57.624Z,93423.00
2024-05-09T07:38:57.576Z,93420.00
2024-05-09T07:39:57.627Z,93421.00
2024-05-09T07:40:57.732Z,93420.00
2024-05-09T07:41:57.779Z,93419.00
2024-05-09T07:42:57.845Z,93416.00
2024-05-09T07:43:58.019Z,93416.00
2024-05-09T07:45:14.679Z,93417.00
2024-05-09T07:46:23.043Z,93415.00
2024-05-09T07:49:44.345Z,93413.00
2024-05-09T07:51:47.015Z,93411.00
2024-05-09T07:52:39.173Z,93411.00
2024-05-09T07:53:22.038Z,93411.00
2024-05-09T07:54:00.695Z,93408.00
2024-05-09T07:54:58.645Z,93410.00
2024-05-09T07:55:58.502Z,93411.00
2024-05-09T07:56:58.231Z,93408.00
2024-05-09T07:57:58.190Z,93405.00
2024-05-09T07:58:58.183Z,93404.00
2024-05-09T07:59:58.219Z,93403.00
2024-05-09T08:00:58.356Z,93402.00
2024-05-09T08:01:58.331Z,93402.00
2024-05-09T08:02:58.363Z,93403.00
2024-05-09T08:03:58.593Z,93401.00
2024-05-09T08:04:58.343Z,93400.00
2024-05-09T08:05:58.293Z,93400.00
2024-05-09T08:06:58.339Z,93401.00
2024-05-09T08:07:58.323Z,93400.00
2024-05-09T08:09:00.864Z,93401.00
2024-05-09T08:09:58.499Z,93403.00
2024-05-09T08:10:58.364Z,93405.00
2024-05-09T08:11:58.411Z,93404.00
2024-05-09T08:12:58.424Z,93401.00
2024-05-09T08:13:58.409Z,93401.00
2024-05-09T08:14:58.437Z,93399.00
2024-05-09T08:15:58.510Z,93397.00
2024-05-09T08:16:58.482Z,93396.00
2024-05-09T08:17:58.504Z,93393.00
2024-05-09T08:18:58.564Z,93392.00
2024-05-09T08:19:58.483Z,93391.00
2024-05-09T08:20:58.514Z,93391.00
2024-05-09T08:21:58.545Z,93389.00
2024-05-09T08:22:58.566Z,93388.00
2024-05-09T08:23:58.591Z,93387.00
2024-05-09T08:24:58.686Z,93386.00
2024-05-09T08:25:58.716Z,93388.00
2024-05-09T08:26:58.775Z,93387.00
2024-05-09T08:27:58.953Z,93385.00
2024-05-09T08:28:58.902Z,93386.00
2024-05-09T08:29:59.034Z,93384.00
2024-05-09T08:31:00.054Z,93385.00
2024-05-09T08:31:59.191Z,93383.00
2024-05-09T08:32:59.224Z,93384.00
2024-05-09T08:33:59.310Z,93382.00
2024-05-09T08:34:59.295Z,93384.00
2024-05-09T08:35:59.329Z,93381.00
2024-05-09T08:37:03.922Z,93382.00
2024-05-09T08:38:00.446Z,93383.00
2024-05-09T08:38:59.430Z,93382.00
2024-05-09T08:39:59.545Z,93381.00
2024-05-09T08:40:59.479Z,93379.00
2024-05-09T08:41:59.454Z,93380.00
2024-05-09T08:42:59.517Z,93376.00
2024-05-09T08:43:59.486Z,93377.00
2024-05-09T08:44:59.504Z,93376.00
2024-05-09T08:45:59.603Z,93376.00
2024-05-09T08:46:59.563Z,93375.00
2024-05-09T08:47:59.749Z,93375.00
2024-05-09T08:48:59.945Z,93375.00
2024-05-09T08:49:59.866Z,93371.00
2024-05-09T08:50:59.801Z,93371.00
2024-05-09T08:51:59.875Z,93372.00
2024-05-09T08:52:59.970Z,93370.00
2024-05-09T08:54:00.009Z,93368.00
2024-05-09T08:55:00.142Z,93370.00
2024-05-09T08:56:00.152Z,93370.00
2024-05-09T08:57:00.216Z,93368.00
2024-05-09T08:58:00.312Z,93368.00
2024-05-09T08:59:00.360Z,93368.00
2024-05-09T09:00:00.480Z,93366.00
2024-05-09T09:01:00.702Z,93365.00
2024-05-09T09:02:00.612Z,93363.00
2024-05-09T09:03:00.662Z,93362.00
2024-05-09T09:04:00.761Z,93364.00
2024-05-09T09:05:00.825Z,93364.00
2024-05-09T09:06:00.775Z,93363.00
2024-05-09T09:07:02.323Z,93363.00
2024-05-09T09:08:01.055Z,93364.00
2024-05-09T09:09:01.132Z,93363.00
2024-05-09T09:10:01.295Z,93363.00
2024-05-09T09:11:02.233Z,93364.00
2024-05-09T09:12:01.359Z,93365.00
2024-05-09T09:13:01.267Z,93362.00
2024-05-09T09:14:01.246Z,93362.00
2024-05-09T09:15:01.260Z,93361.00
2024-05-09T09:16:01.348Z,93362.00
2024-05-09T09:17:01.282Z,93364.00
2024-05-09T09:18:01.662Z,93363.00
2024-05-09T09:19:01.388Z,93363.00
2024-05-09T09:20:01.498Z,93363.00
2024-05-09T09:21:01.371Z,93364.00
2024-05-09T09:22:01.561Z,93362.00
2024-05-09T09:23:01.500Z,93361.00
2024-05-09T09:24:01.573Z,93360.00
2024-05-09T09:25:01.817Z,93360.00
2024-05-09T09:26:01.838Z,93360.00
2024-05-09T09:27:01.755Z,93359.00
2024-05-09T09:28:02.810Z,93359.00
2024-05-09T09:29:01.773Z,93359.00
2024-05-09T09:30:01.772Z,93358.00
2024-05-09T09:31:01.926Z,93357.00
2024-05-09T09:32:01.839Z,93357.00
2024-05-09T09:33:01.921Z,93356.00
2024-05-09T09:34:01.955Z,93357.00
2024-05-09T09:35:01.886Z,93354.00
2024-05-09T09:36:01.858Z,93353.00
2024-05-09T09:37:01.894Z,93352.00
2024-05-09T09:38:01.977Z,93351.00
2024-05-09T09:39:01.954Z,93349.00
2024-05-09T09:40:02.028Z,93346.00
2024-05-09T09:41:02.223Z,93347.00
2024-05-09T09:42:02.135Z,93344.00
2024-05-09T09:43:02.280Z,93344.00
2024-05-09T09:44:02.290Z,93341.00
2024-05-09T09:45:05.419Z,93340.00
2024-05-09T09:46:02.470Z,93335.00
2024-05-09T09:47:02.384Z,93333.00
2024-05-09T09:48:02.441Z,93332.00
2024-05-09T09:49:02.773Z,93331.00
2024-05-09T09:50:03.138Z,93333.00
2024-05-09T09:51:02.399Z,93329.00
2024-05-09T09:52:02.459Z,93329.00
2024-05-09T09:53:02.430Z,93327.00
2024-05-09T09:54:02.437Z,93328.00
2024-05-09T09:55:02.505Z,93328.00
2024-05-09T09:56:02.458Z,93328.00
2024-05-09T09:57:02.474Z,93325.00
2024-05-09T09:58:02.535Z,93324.00
2024-05-09T09:59:02.520Z,93324.00
2024-05-09T10:00:05.720Z,93324.00
2024-05-09T10:01:02.677Z,93324.00
2024-05-09T10:02:02.766Z,93321.00
2024-05-09T10:03:02.683Z,93321.00
2024-05-09T10:04:02.785Z,93321.00
2024-05-09T10:05:02.721Z,93319.00
2024-05-09T10:06:02.637Z,93319.00
2024-05-09T10:07:02.628Z,93318.00
2024-05-09T10:08:02.615Z,93317.00
2024-05-09T10:09:02.609Z,93316.00
2024-05-09T10:10:02.749Z,93315.00
2024-05-09T10:11:02.810Z,93314.00
2024-05-09T10:12:02.653Z,93313.00
2024-05-09T10:13:02.867Z,93314.00
2024-05-09T10:14:02.734Z,93312.00
2024-05-09T10:15:02.797Z,93312.00
2024-05-09T10:16:45.812Z,93311.00
2024-05-09T10:17:45.571Z,93312.00
2024-05-09T10:18:45.654Z,93310.00
2024-05-09T10:19:45.539Z,93312.00
2024-05-09T10:20:45.582Z,93310.00
2024-05-09T10:21:45.585Z,93309.00
2024-05-09T10:22:45.539Z,93309.00
2024-05-09T10:23:45.543Z,93308.00
2024-05-09T10:24:45.636Z,93307.00
2024-05-09T10:25:45.552Z,93306.00
2024-05-09T10:26:45.560Z,93301.00
2024-05-09T10:27:45.607Z,93304.00
2024-05-09T10:28:45.584Z,93302.00
2024-05-09T10:29:45.590Z,93300.00
2024-05-09T10:30:46.670Z,93298.00
2024-05-09T10:31:45.905Z,93295.00
2024-05-09T10:32:45.716Z,93293.00
2024-05-09T10:33:45.917Z,93294.00
2024-05-09T10:34:45.665Z,93295.00
2024-05-09T10:35:45.646Z,93293.00
2024-05-09T10:36:45.686Z,93287.00
2024-05-09T10:37:45.655Z,93291.00
2024-05-09T10:38:45.673Z,93289.00
2024-05-09T10:39:45.710Z,93287.00
2024-05-09T10:40:45.763Z,93287.00
2024-05-09T10:41:45.712Z,93288.00
2024-05-09T10:42:45.795Z,93284.00
2024-05-09T10:43:45.761Z,93282.00
2024-05-09T10:44:45.752Z,93281.00
2024-05-09T10:45:45.876Z,93283.00
2024-05-09T10:46:45.887Z,93280.00
2024-05-09T10:47:46.019Z,93282.00
2024-05-09T10:48:46.064Z,93282.00
2024-05-09T10:49:46.149Z,93285.00
2024-05-09T10:50:46.111Z,93280.00
2024-05-09T10:51:46.205Z,93282.00
2024-05-09T10:52:46.221Z,93277.00
2024-05-09T10:53:46.292Z,93276.00
2024-05-09T10:54:46.367Z,93276.00
2024-05-09T10:55:46.403Z,93280.00
2024-05-09T10:56:46.478Z,93280.00
2024-05-09T10:57:46.557Z,93275.00
2024-05-09T10:58:46.612Z,93275.00
2024-05-09T10:59:46.673Z,93271.00
2024-05-09T11:00:46.823Z,93273.00
2024-05-09T11:01:46.879Z,93271.00
2024-05-09T11:02:46.905Z,93269.00
2024-05-09T11:03:47.264Z,93267.00
2024-05-09T11:04:47.135Z,93268.00
2024-05-09T11:05:47.074Z,93265.00
2024-05-09T11:06:47.142Z,93262.00
2024-05-09T11:07:47.129Z,93263.00
2024-05-09T11:08:47.213Z,93262.00
2024-05-09T11:09:47.286Z,93262.00
2024-05-09T11:10:47.457Z,93258.00
2024-05-09T11:11:47.418Z,93259.00
2024-05-09T11:12:47.479Z,93258.00
2024-05-09T11:13:47.547Z,93258.00
2024-05-09T11:14:47.567Z,93258.00
2024-05-09T11:15:47.691Z,93256.00
2024-05-09T11:16:47.679Z,93257.00
2024-05-09T11:17:47.913Z,93254.00
2024-05-09T11:18:47.981Z,93256.00
2024-05-09T11:19:47.945Z,93254.00
2024-05-09T11:20:48.027Z,93254.00
2024-05-09T11:21:47.982Z,93256.00
2024-05-09T11:22:48.058Z,93253.00
2024-05-09T11:23:48.140Z,93255.00
2024-05-09T11:24:48.226Z,93255.00
2024-05-09T11:25:48.244Z,93258.00
2024-05-09T11:26:48.312Z,93256.00
2024-05-09T11:27:48.446Z,93257.00
2024-05-09T11:28:48.442Z,93255.00
2024-05-09T11:29:48.490Z,93256.00
2024-05-09T11:30:48.596Z,93251.00
2024-05-09T11:31:48.747Z,93253.00
2024-05-09T11:32:48.735Z,93251.00
2024-05-09T11:33:48.806Z,93254.00
2024-05-09T11:34:48.791Z,93250.00
2024-05-09T11:35:48.870Z,93249.00
2024-05-09T11:36:48.980Z,93251.00
2024-05-09T11:37:48.982Z,93251.00
2024-05-09T11:38:49.037Z,93248.00
2024-05-09T11:39:49.146Z,93246.00
2024-05-09T11:40:49.185Z,93245.00
2024-05-09T11:41:49.200Z,93244.00
2024-05-09T11:42:52.963Z,93242.00
2024-05-09T11:43:49.300Z,93241.00
2024-05-09T11:44:49.286Z,93238.00
2024-05-09T11:45:49.299Z,93238.00
2024-05-09T11:46:49.313Z,93237.00
2024-05-09T11:47:50.171Z,93236.00
2024-05-09T11:48:49.570Z,93236.00
2024-05-09T11:49:49.407Z,93235.00
2024-05-09T11:50:49.377Z,93233.00
2024-05-09T11:51:49.414Z,93235.00
2024-05-09T11:52:49.412Z,93233.00